Time;durP1;ratioP1;P1;durP2;ratioP2;P2;SDS_P1;SDS_P2;PMS_P1;PMS_P2;Temp;Humidity;BMP_temperature;BMP_pressure;BME280_temperature;BME280_humidity;BME280_pressure;Samples;Min_cycle;Max_cycle;Signal;HPM_P1;HPM_P2
2022/02/11 06:33:07;;;;;;;11.73;1.65;;;4.90;99.90;;;;;;5068715;28;20062;-86
2022/02/11 06:36:11;;;;;;;17.30;2.75;;;4.90;99.90;;;;;;5047506;28;20080;-86
2022/02/11 06:38:37;;;;;;;14.38;1.75;;;4.90;99.90;;;;;;5038611;28;20033;-85
2022/02/11 06:41:15;;;;;;;11.40;2.30;;;4.80;99.90;;;;;;5063304;28;20040;-84
2022/02/11 06:44:00;;;;;;;12.13;1.88;;;5.00;99.90;;;;;;5075182;28;20048;-85
2022/02/11 06:46:30;;;;;;;15.15;1.73;;;5.00;99.90;;;;;;5050860;28;20105;-84
2022/02/11 06:48:58;;;;;;;16.10;2.40;;;5.00;99.90;;;;;;5057984;28;20404;-84
2022/02/11 06:51:26;;;;;;;12.40;1.83;;;5.00;99.90;;;;;;5020027;28;20094;-84
2022/02/11 06:53:58;;;;;;;22.85;4.20;;;5.00;99.90;;;;;;5044167;28;20388;-84
2022/02/11 08:12:52;;;;;;;23.73;3.20;;;4.90;99.90;;;;;;5063833;28;20047;-84
2022/02/11 08:15:18;;;;;;;25.35;3.08;;;4.80;99.90;;;;;;5046366;28;20041;-84
2022/02/11 08:17:45;;;;;;;18.85;3.03;;;4.90;99.90;;;;;;5030311;28;20056;-84
2022/02/11 08:20:13;;;;;;;14.60;3.00;;;4.90;99.90;;;;;;5030777;28;20044;-85
2022/02/11 08:22:39;;;;;;;17.60;2.53;;;5.80;99.90;;;;;;5031130;28;20535;-85
2022/02/11 08:25:05;;;;;;;16.90;2.58;;;5.00;99.90;;;;;;5058687;28;20119;-84
2022/02/11 08:27:31;;;;;;;27.35;2.88;;;4.90;99.90;;;;;;5026110;28;20103;-84
2022/02/11 08:30:00;;;;;;;13.95;2.22;;;5.00;99.90;;;;;;5037679;28;20036;-84
2022/02/11 08:32:29;;;;;;;23.38;3.88;;;4.90;99.90;;;;;;5028961;28;20388;-85
2022/02/11 08:34:57;;;;;;;22.73;3.08;;;5.00;99.90;;;;;;5023011;28;20036;-84
2022/02/11 08:37:25;;;;;;;16.35;3.35;;;5.30;99.90;;;;;;5056847;28;20049;-84
2022/02/11 08:39:51;;;;;;;24.42;3.70;;;4.90;99.90;;;;;;5018899;28;20037;-84
2022/02/11 08:42:19;;;;;;;16.50;2.70;;;5.00;99.90;;;;;;5029209;28;20033;-84
2022/02/11 08:44:45;;;;;;;21.23;3.40;;;4.90;99.90;;;;;;5055859;28;20029;-84
2022/02/11 08:47:38;;;;;;;32.95;4.28;;;4.90;99.90;;;;;;5044335;28;20082;-84
2022/02/11 08:50:25;;;;;;;21.23;2.72;;;4.90;99.90;;;;;;5044251;28;20125;-85
2022/02/11 08:52:53;;;;;;;17.15;2.40;;;4.90;99.90;;;;;;5044333;28;20115;-85
2022/02/11 08:55:25;;;;;;;13.93;1.77;;;4.90;99.90;;;;;;5049366;28;20040;-85
2022/02/11 08:57:59;;;;;;;12.32;1.83;;;4.90;99.90;;;;;;5057338;28;20087;-85
2022/02/11 09:00:54;;;;;;;15.05;1.95;;;4.90;99.90;;;;;;5031486;28;20041;-85
2022/02/11 09:03:42;;;;;;;12.60;2.05;;;6.10;99.90;;;;;;5040498;28;20407;-85
2022/02/11 09:06:12;;;;;;;13.00;2.03;;;5.00;99.90;;;;;;5059531;28;20522;-85
2022/02/11 09:08:40;;;;;;;15.52;3.53;;;5.90;99.90;;;;;;5033119;28;20485;-85
2022/02/11 09:11:08;;;;;;;16.90;3.22;;;6.00;99.90;;;;;;5024240;28;20068;-85
2022/02/11 09:13:34;;;;;;;25.35;3.20;;;5.20;99.90;;;;;;5025971;28;20071;-85
2022/02/11 09:16:00;;;;;;;17.00;2.40;;;5.20;99.90;;;;;;5047186;28;20131;-85
2022/02/11 09:18:26;;;;;;;13.52;2.20;;;5.40;99.90;;;;;;5044615;28;20034;-86
2022/02/11 09:20:52;;;;;;;20.38;3.45;;;5.40;99.90;;;;;;5051777;28;20040;-85
2022/02/11 09:23:20;;;;;;;22.45;2.25;;;5.70;99.90;;;;;;5051220;28;20541;-85
2022/02/11 09:25:45;;;;;;;15.68;2.47;;;5.40;99.90;;;;;;5047014;28;20488;-85
2022/02/11 09:28:11;;;;;;;18.70;2.90;;;5.50;99.90;;;;;;5048717;28;20076;-85
2022/02/11 09:30:37;;;;;;;15.27;2.22;;;5.50;99.90;;;;;;5046658;28;20127;-85
2022/02/11 09:33:03;;;;;;;14.85;2.15;;;5.60;99.90;;;;;;5069151;28;20036;-85
2022/02/11 09:35:29;;;;;;;18.95;3.03;;;5.60;99.90;;;;;;5036309;28;20045;-85
2022/02/11 09:37:56;;;;;;;18.17;2.63;;;5.40;99.90;;;;;;5044996;28;20099;-86
2022/02/11 09:40:21;;;;;;;16.40;3.35;;;5.80;99.90;;;;;;5052164;28;20521;-85
2022/02/11 09:42:47;;;;;;;15.65;3.00;;;5.50;99.90;;;;;;5036835;28;20044;-84
2022/02/11 09:45:14;;;;;;;19.60;3.67;;;6.40;99.90;;;;;;5047968;28;20993;-85
2022/02/11 09:47:41;;;;;;;17.10;2.53;;;5.80;99.90;;;;;;5048270;28;20049;-85
2022/02/11 09:50:08;;;;;;;18.50;2.90;;;5.90;99.90;;;;;;5045991;28;20028;-85
2022/02/11 09:52:48;;;;;;;23.30;2.30;;;6.00;99.90;;;;;;5048571;28;20080;-84
2022/02/11 09:55:32;;;;;;;15.05;2.75;;;6.10;99.90;;;;;;5048655;28;20090;-84
2022/02/11 09:57:59;;;;;;;16.52;1.90;;;6.10;99.90;;;;;;5067370;28;20036;-84
2022/02/11 10:00:26;;;;;;;12.95;2.30;;;6.20;99.90;;;;;;5046384;28;20044;-83
2022/02/11 10:02:59;;;;;;;14.85;1.77;;;6.20;99.90;;;;;;5048149;28;20036;-84
2022/02/11 10:05:27;;;;;;;16.67;2.33;;;6.20;99.90;;;;;;5035569;28;20115;-83
2022/02/11 10:07:53;;;;;;;18.77;3.83;;;6.30;99.90;;;;;;5078173;28;20877;-84
2022/02/11 10:10:38;;;;;;;19.50;3.97;;;6.30;99.90;;;;;;5055284;28;20623;-84
2022/02/11 10:13:10;;;;;;;15.27;2.33;;;6.50;99.90;;;;;;5045420;28;20052;-84
2022/02/11 10:15:38;;;;;;;14.70;2.08;;;6.50;99.90;;;;;;5076661;28;20041;-83
2022/02/11 10:18:07;;;;;;;12.75;2.05;;;6.50;99.90;;;;;;5061062;28;20048;-83
2022/02/11 10:20:56;;;;;;;14.48;2.88;;;6.40;99.90;;;;;;5034812;28;20044;-84
2022/02/11 10:23:31;;;;;;;18.83;3.05;;;6.50;99.90;;;;;;5060633;28;20045;-84
2022/02/11 10:26:07;;;;;;;18.23;3.08;;;6.50;99.90;;;;;;5037613;28;20559;-84
2022/02/11 10:28:51;;;;;;;14.82;2.53;;;6.90;99.90;;;;;;5026070;28;21365;-83
2022/02/11 10:31:30;;;;;;;15.25;2.03;;;6.60;99.90;;;;;;5030426;28;20090;-84
2022/02/11 10:34:07;;;;;;;17.80;2.67;;;6.60;99.90;;;;;;5029910;28;20044;-85
2022/02/11 10:36:47;;;;;;;13.55;2.60;;;6.70;99.90;;;;;;5047069;28;20125;-83
2022/02/11 10:39:27;;;;;;;17.83;2.70;;;6.70;99.90;;;;;;5062427;28;20090;-86
2022/02/11 10:42:10;;;;;;;16.08;2.20;;;6.80;99.90;;;;;;5035040;28;20821;-85
2022/02/11 10:44:43;;;;;;;14.15;2.47;;;6.90;99.90;;;;;;5047050;28;20119;-85
2022/02/11 10:47:14;;;;;;;15.77;2.10;;;6.90;99.90;;;;;;5048326;28;20079;-83
2022/02/11 10:49:48;;;;;;;23.65;2.45;;;7.10;99.90;;;;;;5022621;28;20139;-84
2022/02/11 10:52:35;;;;;;;10.77;2.65;;;7.10;99.90;;;;;;5038897;28;20044;-85
2022/02/11 10:55:01;;;;;;;10.45;2.00;;;7.10;99.90;;;;;;5030428;28;20041;-83
2022/02/11 10:57:31;;;;;;;23.67;3.20;;;7.00;99.90;;;;;;5034299;28;20039;-86
2022/02/11 11:00:00;;;;;;;13.00;2.15;;;7.10;99.90;;;;;;5039868;28;20074;-86
2022/02/11 11:02:31;;;;;;;16.42;2.47;;;7.10;99.90;;;;;;5047904;28;20048;-84
2022/02/11 11:04:57;;;;;;;18.83;3.08;;;7.20;99.90;;;;;;5035348;28;20040;-85
2022/02/11 11:07:30;;;;;;;16.80;3.45;;;7.20;99.90;;;;;;5046270;28;20043;-85
2022/02/11 11:09:57;;;;;;;14.07;2.50;;;7.30;99.90;;;;;;5041834;28;20055;-85
2022/02/11 11:12:31;;;;;;;15.63;1.70;;;7.40;99.90;;;;;;5068040;28;20094;-86
2022/02/11 11:15:01;;;;;;;23.05;2.20;;;7.40;99.90;;;;;;5032637;28;20095;-85
2022/02/11 11:17:28;;;;;;;12.52;1.55;;;7.80;99.90;;;;;;5060476;28;20041;-88
2022/02/11 11:19:59;;;;;;;9.30;1.83;;;7.50;99.90;;;;;;5014676;28;20044;-86
2022/02/11 11:23:38;;;;;;;10.43;1.90;;;7.50;99.90;;;;;;5023341;28;20033;-87
2022/02/11 11:26:55;;;;;;;8.23;1.73;;;7.50;99.90;;;;;;5002772;28;20053;-86
2022/02/11 11:29:34;;;;;;;8.80;1.52;;;7.50;99.90;;;;;;4986730;28;20052;-88
2022/02/11 11:32:05;;;;;;;9.63;1.52;;;7.50;99.90;;;;;;5058315;28;20052;-85
2022/02/11 11:34:38;;;;;;;11.50;1.75;;;7.50;99.90;;;;;;5032411;28;20033;-85
2022/02/11 11:37:09;;;;;;;13.93;1.83;;;7.50;99.90;;;;;;5045829;28;20163;-85
2022/02/11 11:39:37;;;;;;;13.30;1.85;;;7.50;99.90;;;;;;5065359;28;20041;-87
2022/02/11 11:42:07;;;;;;;14.60;1.65;;;7.50;99.90;;;;;;5027684;28;20401;-87
2022/02/11 11:44:45;;;;;;;9.52;1.42;;;7.40;99.90;;;;;;5032253;28;20036;-87
2022/02/11 11:47:33;;;;;;;11.85;2.30;;;7.30;99.90;;;;;;5053090;28;20040;-87
2022/02/11 11:50:00;;;;;;;18.40;2.85;;;7.30;99.90;;;;;;5050114;28;20147;-86
2022/02/11 11:52:43;;;;;;;8.88;1.52;;;7.50;99.90;;;;;;5055859;28;20037;-87
2022/02/11 11:55:23;;;;;;;13.25;1.77;;;7.20;99.90;;;;;;5027054;28;20128;-86
2022/02/11 11:57:50;;;;;;;14.57;2.20;;;7.40;99.90;;;;;;5042419;28;20053;-87
2022/02/11 12:00:39;;;;;;;12.27;1.85;;;7.50;99.90;;;;;;5037544;28;20036;-87
2022/02/11 12:03:05;;;;;;;17.73;2.25;;;7.80;99.90;;;;;;5045181;28;20044;-88
2022/02/11 12:05:53;;;;;;;12.50;1.75;;;7.80;99.90;;;;;;5071759;28;20098;-88
2022/02/11 12:08:20;;;;;;;9.18;1.50;;;7.60;99.90;;;;;;5058484;28;20063;-88
2022/02/11 12:10:49;;;;;;;14.65;2.10;;;7.50;99.90;;;;;;5055282;28;20434;-87
2022/02/11 12:13:17;;;;;;;15.23;2.53;;;7.40;99.90;;;;;;5059682;28;20048;-87
2022/02/11 12:15:43;;;;;;;15.52;2.20;;;7.20;99.90;;;;;;5053370;28;20119;-86
2022/02/11 12:18:08;;;;;;;10.13;2.15;;;7.10;99.90;;;;;;5045024;28;20556;-87
2022/02/11 12:20:37;;;;;;;7.10;1.38;;;7.20;99.90;;;;;;5070025;28;20029;-87
2022/02/11 12:28:35;;;;;;;15.02;1.75;;;7.00;99.90;;;;;;5046903;28;20428;-87
2022/02/11 12:31:06;;;;;;;14.75;1.30;;;6.90;99.90;;;;;;5016979;28;20041;-88
2022/02/11 12:33:32;;;;;;;10.88;1.35;;;6.80;99.90;;;;;;5054188;28;20044;-88
2022/02/11 12:36:11;;;;;;;13.38;1.45;;;6.80;99.90;;;;;;5053083;28;20064;-88
2022/02/11 12:38:37;;;;;;;13.60;1.75;;;6.80;99.90;;;;;;5033993;28;20056;-87
2022/02/11 12:41:03;;;;;;;15.43;2.55;;;6.80;99.90;;;;;;5029713;28;20040;-88
2022/02/11 12:43:29;;;;;;;14.82;1.27;;;6.70;98.60;;;;;;5032559;28;20736;-87
2022/02/11 12:45:56;;;;;;;8.38;1.23;;;6.70;98.60;;;;;;5042038;28;20101;-87
2022/02/11 12:48:30;;;;;;;5.35;1.27;;;6.70;99.40;;;;;;5047213;28;20075;-88
2022/02/11 12:50:55;;;;;;;8.27;1.10;;;6.80;99.10;;;;;;5023903;28;20045;-88
2022/02/11 12:53:23;;;;;;;6.25;1.00;;;6.70;99.50;;;;;;5051914;28;20043;-87
2022/02/11 12:55:51;;;;;;;12.57;1.83;;;6.70;99.60;;;;;;5052602;28;20032;-88
2022/02/11 12:58:20;;;;;;;11.50;1.33;;;6.80;98.70;;;;;;5052963;28;20041;-88
2022/02/11 13:00:48;;;;;;;8.35;1.10;;;6.80;97.90;;;;;;5086800;28;20037;-87
2022/02/11 13:03:15;;;;;;;6.88;0.98;;;6.90;99.90;;;;;;5036821;28;20047;-88
2022/02/11 13:05:51;;;;;;;5.15;0.80;;;6.90;99.80;;;;;;5049885;28;20044;-88
2022/02/11 13:08:26;;;;;;;13.43;1.52;;;7.00;98.90;;;;;;5042639;28;20430;-86
2022/02/11 13:10:57;;;;;;;;;;;7.00;94.80;;;;;;5072502;28;20701;-88
2022/02/11 13:13:23;;;;;;;6.80;0.90;;;6.90;94.20;;;;;;5052864;28;20083;-88
2022/02/11 13:15:48;;;;;;;5.72;0.80;;;6.90;94.80;;;;;;5034779;28;20128;-88
2022/02/11 13:18:19;;;;;;;6.28;0.85;;;6.80;92.10;;;;;;5053091;28;20567;-87
2022/02/11 13:20:52;;;;;;;5.43;1.52;;;6.80;92.70;;;;;;5052041;28;20032;-87
2022/02/11 13:23:20;;;;;;;16.00;1.70;;;6.80;93.60;;;;;;5052336;28;20036;-88
2022/02/11 13:25:46;;;;;;;6.63;0.70;;;7.70;95.10;;;;;;5052639;28;20074;-88
2022/02/11 13:28:16;;;;;;;6.10;0.93;;;7.20;94.20;;;;;;5052333;28;20041;-87
2022/02/11 13:30:48;;;;;;;4.95;0.65;;;7.30;93.60;;;;;;5051688;28;20124;-85
2022/02/11 13:44:46;;;;;;;12.63;1.60;;;7.00;95.30;;;;;;4989310;28;20049;-87
2022/02/11 13:47:32;;;;;;;6.97;1.30;;;6.80;97.10;;;;;;4989198;28;20049;-85
2022/02/11 13:50:16;;;;;;;15.40;1.45;;;6.80;98.40;;;;;;4975066;28;20065;-86
2022/02/11 14:19:26;;;;;;;11.90;1.52;;;6.90;98.80;;;;;;4919299;29;20079;-86
2022/02/11 14:22:35;;;;;;;7.47;1.65;;;6.90;99.60;;;;;;4910952;29;20067;-86
2022/02/11 14:25:30;;;;;;;;;;;6.70;97.90;;;;;;4914454;29;20094;-87
2022/02/11 14:28:26;;;;;;;8.95;1.52;;;6.70;97.80;;;;;;4944231;28;19925;-86
2022/02/11 14:31:21;;;;;;;8.85;0.80;;;6.60;98.50;;;;;;4939730;28;20042;-87
2022/02/11 14:37:55;;;;;;;12.40;1.60;;;6.60;98.70;;;;;;4912037;29;20115;-86
2022/02/11 14:40:20;;;;;;;6.85;1.02;;;6.60;97.00;;;;;;4945936;28;20059;-85
2022/02/11 14:42:55;;;;;;;12.02;1.95;;;6.60;97.40;;;;;;4970686;28;20558;-85
2022/02/11 14:45:21;;;;;;;8.30;0.85;;;6.70;96.40;;;;;;4999143;28;20135;-85
2022/02/11 14:47:56;;;;;;;9.80;1.05;;;6.60;95.70;;;;;;5059812;28;20064;-85
2022/02/11 14:50:22;;;;;;;6.30;0.88;;;6.60;93.30;;;;;;5032432;28;20037;-85
2022/02/11 14:52:47;;;;;;;9.43;1.20;;;6.60;94.10;;;;;;5049430;28;20040;-84
2022/02/11 14:55:13;;;;;;;13.85;1.13;;;6.60;94.80;;;;;;5042607;28;20041;-85
2022/02/11 14:57:39;;;;;;;10.98;1.42;;;6.60;95.00;;;;;;5033893;28;20041;-85
2022/02/11 15:00:05;;;;;;;12.52;2.08;;;7.30;95.30;;;;;;5038125;28;20412;-85
2022/02/11 15:02:32;;;;;;;12.20;1.00;;;6.60;96.00;;;;;;5060721;28;20037;-85
2022/02/11 15:04:58;;;;;;;9.68;1.98;;;6.50;97.70;;;;;;5034683;28;20485;-85
2022/02/11 15:07:23;;;;;;;10.85;1.48;;;6.50;97.80;;;;;;5039031;28;20070;-85
2022/02/11 15:09:49;;;;;;;13.13;2.08;;;6.60;99.90;;;;;;5059779;28;20519;-84
2022/02/11 15:12:20;;;;;;;11.05;1.10;;;6.60;98.50;;;;;;5037202;28;20044;-85
2022/02/11 15:14:46;;;;;;;10.20;1.50;;;6.60;99.90;;;;;;5048994;28;20051;-85
2022/02/11 15:17:16;;;;;;;14.10;2.15;;;6.60;99.90;;;;;;5036506;28;20037;-87
2022/02/11 15:19:42;;;;;;;11.10;1.38;;;6.80;99.90;;;;;;5061720;28;20060;-84
2022/02/11 15:22:08;;;;;;;8.55;1.50;;;6.80;99.90;;;;;;5031690;28;20117;-84
2022/02/11 15:24:34;;;;;;;9.77;1.20;;;6.70;99.90;;;;;;5048356;28;20091;-84
2022/02/11 15:27:00;;;;;;;12.50;1.65;;;6.80;99.90;;;;;;5047024;28;20056;-85
2022/02/11 15:29:25;;;;;;;9.95;1.10;;;6.70;99.90;;;;;;5047470;28;20044;-84
2022/02/11 15:31:52;;;;;;;11.63;1.63;;;6.70;99.80;;;;;;5043538;28;20048;-84
2022/02/11 15:34:17;;;;;;;7.65;1.17;;;6.60;99.90;;;;;;5029925;28;20090;-84
2022/02/11 15:36:43;;;;;;;10.52;2.22;;;6.60;99.90;;;;;;5060449;28;21371;-85
2022/02/11 15:39:08;;;;;;;9.80;0.98;;;6.60;99.90;;;;;;5046730;28;20032;-84
2022/02/11 15:41:34;;;;;;;9.40;1.30;;;6.50;99.90;;;;;;5066565;28;20045;-86
2022/02/11 15:44:00;;;;;;;8.40;1.00;;;6.50;99.90;;;;;;5054465;28;20127;-85
2022/02/11 15:46:27;;;;;;;15.85;1.45;;;6.50;99.90;;;;;;5055037;28;20060;-85
2022/02/11 15:48:53;;;;;;;5.68;1.33;;;6.40;99.90;;;;;;5023352;28;20047;-86
2022/02/11 15:51:19;;;;;;;6.03;0.85;;;6.30;99.90;;;;;;5046634;28;20037;-87
2022/02/11 15:53:45;;;;;;;6.63;1.00;;;6.30;99.90;;;;;;5029480;28;20127;-86
2022/02/11 15:56:11;;;;;;;16.95;1.60;;;6.20;99.90;;;;;;5051788;28;20111;-86
2022/02/11 15:58:38;;;;;;;11.23;1.95;;;6.20;99.90;;;;;;5032063;28;20036;-84
2022/02/11 16:01:05;;;;;;;9.63;1.23;;;6.10;99.90;;;;;;5032744;28;20054;-85
2022/02/11 16:03:34;;;;;;;9.05;0.77;;;6.20;99.90;;;;;;5027871;28;20082;-84
2022/02/11 16:06:00;;;;;;;10.43;1.00;;;6.00;99.90;;;;;;5060465;28;20080;-84
2022/02/11 16:08:29;;;;;;;13.68;2.67;;;5.90;99.90;;;;;;5032787;28;20067;-85
2022/02/11 16:10:55;;;;;;;11.10;1.20;;;6.10;99.90;;;;;;5037557;28;20131;-84
2022/02/11 16:13:22;;;;;;;7.88;1.23;;;5.70;99.90;;;;;;5026105;28;20040;-85
2022/02/11 16:15:47;;;;;;;10.70;1.50;;;5.70;99.90;;;;;;5045998;28;20102;-84
2022/02/11 16:18:16;;;;;;;11.25;1.20;;;5.70;99.90;;;;;;5046603;28;20041;-86
2022/02/11 16:20:46;;;;;;;14.93;1.20;;;5.60;99.90;;;;;;5064975;28;20064;-85
2022/02/11 16:23:14;;;;;;;13.38;2.22;;;5.50;99.90;;;;;;5051550;28;20542;-86
2022/02/11 16:25:40;;;;;;;12.90;1.23;;;5.50;99.90;;;;;;5036134;28;20037;-84
2022/02/11 16:28:08;;;;;;;10.45;1.60;;;5.40;99.90;;;;;;5042569;28;20443;-86
2022/02/11 16:30:34;;;;;;;6.53;1.70;;;5.30;99.90;;;;;;5044356;28;20037;-84
2022/02/11 16:33:00;;;;;;;12.80;2.25;;;5.20;99.90;;;;;;5063377;28;20040;-84
2022/02/11 16:35:26;;;;;;;8.48;0.95;;;5.20;99.90;;;;;;5041695;28;20047;-85
2022/02/11 16:37:51;;;;;;;12.07;1.13;;;5.10;99.90;;;;;;5046032;28;20036;-86
2022/02/11 16:40:17;;;;;;;14.07;2.17;;;5.00;99.90;;;;;;5052448;28;20068;-86
2022/02/11 16:42:44;;;;;;;14.07;1.60;;;5.00;99.90;;;;;;5031202;28;20065;-85
2022/02/11 16:45:10;;;;;;;5.40;0.80;;;5.50;99.90;;;;;;5042791;28;20052;-84
2022/02/11 16:47:37;;;;;;;14.23;1.48;;;5.20;99.90;;;;;;5061824;28;20082;-86
2022/02/11 16:50:05;;;;;;;7.63;1.00;;;4.70;99.90;;;;;;5042675;28;20094;-85
2022/02/11 16:52:33;;;;;;;10.95;1.60;;;4.60;99.90;;;;;;5043184;28;20040;-86
2022/02/11 16:55:00;;;;;;;9.98;1.20;;;4.50;99.90;;;;;;5026965;28;20052;-85
2022/02/11 16:57:25;;;;;;;11.80;1.15;;;4.60;99.90;;;;;;5040690;28;20052;-87
2022/02/11 16:59:54;;;;;;;7.10;1.13;;;4.40;99.90;;;;;;5040516;28;20753;-85
2022/02/11 17:02:20;;;;;;;10.90;1.02;;;4.30;99.90;;;;;;5044647;28;20045;-85
2022/02/11 17:04:46;;;;;;;9.63;0.85;;;4.20;99.90;;;;;;5041694;28;20045;-85
2022/02/11 17:07:12;;;;;;;11.38;1.05;;;4.80;99.90;;;;;;5059383;28;20053;-84
2022/02/11 17:09:38;;;;;;;13.57;1.00;;;4.80;99.90;;;;;;5057374;28;20117;-83
2022/02/11 17:12:05;;;;;;;8.50;0.98;;;4.10;99.90;;;;;;5039661;28;20041;-83
2022/02/11 17:14:31;;;;;;;10.88;1.30;;;4.00;99.90;;;;;;5030273;28;20047;-83
2022/02/11 17:16:57;;;;;;;9.38;1.25;;;3.90;99.90;;;;;;5055497;28;20400;-83
2022/02/11 17:19:23;;;;;;;23.17;3.05;;;3.70;99.90;;;;;;5040588;28;20423;-83
2022/02/11 17:21:50;;;;;;;7.10;1.40;;;3.70;99.90;;;;;;5041821;28;20036;-84
2022/02/11 17:24:31;;;;;;;11.68;1.25;;;3.60;99.90;;;;;;5026000;28;20037;-84
2022/02/11 17:26:59;;;;;;;10.93;1.40;;;3.60;99.90;;;;;;5040803;28;20044;-84
2022/02/11 17:29:52;;;;;;;8.48;1.42;;;3.50;99.90;;;;;;5040642;28;20613;-84
2022/02/11 17:32:45;;;;;;;9.63;2.20;;;3.50;99.90;;;;;;5050809;28;20072;-84
2022/02/11 17:35:24;;;;;;;10.35;1.42;;;3.40;99.90;;;;;;5069017;28;20045;-84
2022/02/11 17:37:50;;;;;;;14.85;1.35;;;3.40;99.90;;;;;;5056843;28;20110;-85
2022/02/11 17:40:20;;;;;;;8.55;0.90;;;3.30;99.90;;;;;;5047233;28;20036;-85
2022/02/11 17:43:10;;;;;;;5.97;0.80;;;3.30;99.90;;;;;;5009396;28;20074;-84
2022/02/11 17:49:22;;;;;;;6.03;1.00;;;3.00;99.90;;;;;;5054168;28;20148;-84
2022/02/11 17:51:48;;;;;;;7.60;1.20;;;2.90;99.90;;;;;;5044443;28;20055;-84
2022/02/11 17:54:17;;;;;;;6.90;0.93;;;2.80;99.90;;;;;;5060386;28;20135;-84
2022/02/11 17:56:56;;;;;;;11.30;1.02;;;2.90;99.90;;;;;;5027686;28;20123;-86
2022/02/11 17:59:42;;;;;;;11.93;0.90;;;3.00;99.90;;;;;;5063489;28;20051;-84
2022/02/11 18:02:13;;;;;;;8.40;1.23;;;2.90;99.90;;;;;;5028370;28;20057;-86
2022/02/11 18:04:54;;;;;;;5.93;0.88;;;2.90;99.90;;;;;;5044537;28;20491;-85
2022/02/11 18:07:39;;;;;;;8.05;1.50;;;2.90;99.90;;;;;;5024899;28;20049;-83
2022/02/11 18:10:10;;;;;;;9.55;1.10;;;3.60;99.90;;;;;;5075728;28;20442;-82
2022/02/11 18:12:36;;;;;;;10.20;0.98;;;3.00;99.90;;;;;;5046446;28;20048;-82
2022/02/11 18:15:02;;;;;;;9.02;1.48;;;3.00;99.90;;;;;;5047199;28;20466;-83
2022/02/11 18:17:30;;;;;;;13.75;1.05;;;2.50;99.90;;;;;;5057529;28;20514;-83
2022/02/11 18:19:57;;;;;;;9.75;1.45;;;3.20;99.90;;;;;;5043851;28;20043;-82
2022/02/11 18:22:24;;;;;;;9.40;1.90;;;3.70;99.90;;;;;;5044620;28;20044;-83
2022/02/11 18:24:49;;;;;;;7.82;1.02;;;3.20;99.90;;;;;;5043388;28;20884;-83
2022/02/11 18:27:15;;;;;;;14.52;1.98;;;3.20;99.90;;;;;;5045725;28;20045;-83
2022/02/11 18:29:41;;;;;;;8.35;1.20;;;3.30;99.90;;;;;;5044195;28;20044;-83
2022/02/11 18:32:08;;;;;;;9.25;1.75;;;3.30;99.90;;;;;;5043555;28;20082;-82
2022/02/11 18:34:33;;;;;;;12.38;1.02;;;3.30;99.90;;;;;;5044780;28;20524;-84
2022/02/11 18:36:59;;;;;;;9.52;0.90;;;3.20;99.90;;;;;;5058108;28;20041;-84
2022/02/11 18:39:27;;;;;;;10.38;1.30;;;3.50;99.90;;;;;;5033669;28;20502;-84
2022/02/11 18:41:53;;;;;;;10.70;2.08;;;3.30;99.90;;;;;;5048228;28;20071;-83
2022/02/11 18:44:19;;;;;;;9.52;1.40;;;4.10;99.90;;;;;;5062458;28;20064;-85
2022/02/11 18:46:45;;;;;;;13.30;1.42;;;3.40;99.90;;;;;;5035945;28;20033;-83
2022/02/11 18:49:11;;;;;;;7.82;0.90;;;3.40;99.90;;;;;;5028523;28;20041;-84
2022/02/11 18:51:41;;;;;;;9.35;1.10;;;3.60;99.90;;;;;;5035565;28;20037;-84
2022/02/11 18:54:08;;;;;;;6.82;1.08;;;3.40;99.90;;;;;;5039388;28;20418;-85
2022/02/11 18:56:34;;;;;;;12.15;1.73;;;3.40;99.90;;;;;;5042715;28;20071;-85
2022/02/11 19:00:25;;;;;;;7.78;1.08;;;3.50;99.90;;;;;;5034480;28;20084;-84
2022/02/11 19:01:54;;;;;;;5.95;0.93;;;3.50;99.90;;;;;;5051430;28;20056;-85
2022/02/11 19:04:20;;;;;;;7.97;1.55;;;3.60;99.90;;;;;;5034923;28;20057;-85
2022/02/11 19:06:46;;;;;;;11.38;1.00;;;3.50;99.90;;;;;;5058145;28;20032;-84
2022/02/11 19:09:11;;;;;;;5.43;0.90;;;3.50;99.90;;;;;;5032720;28;20037;-84
2022/02/11 19:11:41;;;;;;;8.32;1.05;;;3.50;99.90;;;;;;5062529;28;20086;-84
2022/02/11 19:14:12;;;;;;;8.13;0.95;;;3.50;99.90;;;;;;5046603;28;20143;-84
2022/02/11 19:16:37;;;;;;;11.13;1.15;;;3.40;99.90;;;;;;5059297;28;20041;-85
2022/02/11 19:19:03;;;;;;;10.70;0.95;;;3.70;99.90;;;;;;5034099;28;20128;-84
2022/02/11 19:21:29;;;;;;;9.55;0.88;;;3.40;99.90;;;;;;5057999;28;20040;-84
2022/02/11 19:23:54;;;;;;;8.45;1.58;;;3.40;99.90;;;;;;5066256;28;20049;-85
2022/02/11 19:26:20;;;;;;;14.85;1.33;;;3.40;99.90;;;;;;5046983;28;20045;-86
2022/02/11 19:28:49;;;;;;;7.00;1.45;;;3.30;99.90;;;;;;5069259;28;20048;-86
2022/02/11 19:31:14;;;;;;;8.73;1.35;;;3.40;99.90;;;;;;5055378;28;20045;-85
2022/02/11 19:33:43;;;;;;;9.15;1.23;;;3.20;99.90;;;;;;5045134;28;20040;-85
2022/02/11 19:36:09;;;;;;;11.45;1.50;;;3.20;99.90;;;;;;5033960;28;20082;-85
2022/02/11 19:38:34;;;;;;;6.22;1.00;;;3.20;99.90;;;;;;5048035;28;20040;-86
2022/02/11 19:41:01;;;;;;;11.68;0.93;;;3.10;99.90;;;;;;5054951;28;20057;-85
2022/02/11 19:43:29;;;;;;;5.93;0.93;;;3.10;99.90;;;;;;5029107;28;20131;-84
2022/02/11 19:45:55;;;;;;;10.35;1.10;;;3.00;99.90;;;;;;5016818;28;20109;-85
2022/02/11 19:48:22;;;;;;;5.10;1.08;;;3.10;99.90;;;;;;5062407;28;20049;-86
2022/02/11 19:50:51;;;;;;;8.60;1.90;;;2.90;99.90;;;;;;5036521;28;20044;-84
2022/02/11 19:53:18;;;;;;;6.95;1.27;;;2.90;99.90;;;;;;5042600;28;20118;-83
2022/02/11 19:55:43;;;;;;;12.98;1.25;;;3.00;99.90;;;;;;5059241;28;20041;-83
2022/02/11 19:58:13;;;;;;;5.65;1.40;;;2.80;99.90;;;;;;5052593;28;20048;-85
2022/02/11 20:00:39;;;;;;;12.32;1.70;;;2.80;99.90;;;;;;5040432;28;20028;-81
2022/02/11 20:03:04;;;;;;;10.15;1.35;;;2.80;99.90;;;;;;5047467;28;20082;-84
2022/02/11 20:05:32;;;;;;;13.27;1.85;;;2.70;99.90;;;;;;5046623;28;20037;-83
2022/02/11 20:07:58;;;;;;;7.70;1.50;;;3.10;99.90;;;;;;5038596;28;20074;-82
2022/02/11 20:10:23;;;;;;;20.10;3.03;;;2.70;99.90;;;;;;5066659;28;20072;-82
2022/02/11 20:12:49;;;;;;;12.57;2.55;;;2.60;99.90;;;;;;5052235;28;20037;-83
2022/02/11 20:15:15;;;;;;;11.10;2.17;;;2.60;99.90;;;;;;5042929;28;20032;-82
2022/02/11 20:17:43;;;;;;;11.55;2.10;;;2.60;99.90;;;;;;5047630;28;20060;-82
2022/02/11 20:20:09;;;;;;;9.35;1.20;;;2.50;99.90;;;;;;5046741;28;20142;-83
2022/02/11 20:22:40;;;;;;;10.80;1.60;;;2.50;99.90;;;;;;5041131;28;20407;-82
2022/02/11 20:25:06;;;;;;;9.65;1.70;;;2.50;99.90;;;;;;5056937;28;20056;-82
2022/02/11 20:27:32;;;;;;;13.82;2.10;;;2.40;99.90;;;;;;5054297;28;20416;-83
2022/02/11 20:29:57;;;;;;;7.47;1.40;;;2.40;99.90;;;;;;5042262;28;20040;-83
2022/02/11 20:32:23;;;;;;;7.38;2.42;;;2.40;99.90;;;;;;5031054;28;20033;-82
2022/02/11 20:34:49;;;;;;;11.77;1.55;;;2.60;99.90;;;;;;5037417;28;20044;-82
2022/02/11 20:37:15;;;;;;;9.43;1.48;;;2.50;99.90;;;;;;5030456;28;20040;-82
2022/02/11 20:39:41;;;;;;;9.82;2.17;;;2.10;99.90;;;;;;5034822;28;20076;-83
2022/02/11 20:42:07;;;;;;;11.55;2.15;;;2.10;99.90;;;;;;5046723;28;20099;-82
2022/02/11 20:44:33;;;;;;;12.00;2.40;;;2.00;99.90;;;;;;5034902;28;20048;-82
2022/02/11 20:46:59;;;;;;;12.95;1.52;;;2.10;99.90;;;;;;5039268;28;20040;-82
2022/02/11 20:49:25;;;;;;;10.25;1.60;;;2.10;99.90;;;;;;5063258;28;20041;-82
2022/02/11 20:51:50;;;;;;;11.25;1.92;;;2.00;99.90;;;;;;5024396;28;20044;-83
2022/02/11 20:54:17;;;;;;;10.70;1.35;;;2.00;99.90;;;;;;5050877;28;20063;-82
2022/02/11 20:56:43;;;;;;;10.25;1.55;;;2.00;99.90;;;;;;5032475;28;20487;-82
2022/02/11 20:59:09;;;;;;;8.23;1.80;;;1.90;99.90;;;;;;5067148;28;20135;-82
2022/02/11 21:01:39;;;;;;;9.15;2.10;;;1.90;99.90;;;;;;5055524;28;20121;-83
2022/02/11 21:04:05;;;;;;;13.15;2.60;;;1.90;99.90;;;;;;5039384;28;20373;-82
2022/02/11 21:09:16;;;;;;;11.63;3.03;;;1.90;99.90;;;;;;5050829;28;20102;-82
2022/02/11 21:11:42;;;;;;;7.60;2.50;;;1.80;99.90;;;;;;5037682;28;20576;-82
2022/02/11 21:14:08;;;;;;;7.22;2.08;;;1.80;99.90;;;;;;5029723;28;20119;-83
2022/02/11 21:16:34;;;;;;;10.75;3.03;;;1.80;99.90;;;;;;5040131;28;20048;-82
2022/02/11 21:19:03;;;;;;;10.98;2.72;;;1.70;99.90;;;;;;5050434;28;20049;-82
2022/02/11 21:21:30;;;;;;;13.95;3.67;;;1.70;99.90;;;;;;5051564;28;20086;-82
2022/02/11 21:23:56;;;;;;;10.35;2.65;;;1.70;99.90;;;;;;5052091;28;20075;-82
2022/02/11 21:26:21;;;;;;;13.82;1.75;;;1.70;99.90;;;;;;5035678;28;20125;-82
2022/02/11 21:28:47;;;;;;;7.43;2.75;;;1.60;99.90;;;;;;5048214;28;20171;-82
2022/02/11 21:31:13;;;;;;;13.75;2.80;;;1.60;99.90;;;;;;5033562;28;20413;-82
2022/02/11 21:33:38;;;;;;;9.20;2.10;;;1.50;99.90;;;;;;5065211;28;20040;-83
2022/02/11 21:36:04;;;;;;;11.40;2.60;;;1.50;99.90;;;;;;5066225;28;20496;-82
2022/02/11 21:38:32;;;;;;;9.85;2.25;;;1.50;99.90;;;;;;5032819;28;20071;-82
2022/02/11 21:41:02;;;;;;;12.38;2.30;;;1.50;99.90;;;;;;5037407;28;20079;-82
2022/02/11 21:43:28;;;;;;;8.93;3.20;;;1.50;99.90;;;;;;5032692;28;20041;-82
2022/02/11 21:45:55;;;;;;;9.38;2.05;;;1.50;99.90;;;;;;5039638;28;20108;-82
2022/02/11 21:48:21;;;;;;;7.70;2.13;;;1.40;99.90;;;;;;5038264;28;20127;-83